Time;durP1;ratioP1;P1;durP2;ratioP2;P2;SDS_P1;SDS_P2;PMS_P1;PMS_P2;Temp;Humidity;BMP_temperature;BMP_pressure;BME280_temperature;BME280_humidity;BME280_pressure;Samples;Min_cycle;Max_cycle;Signal;HPM_P1;HPM_P2
2021/08/10 00:00:58;;;;;;;4.30;2.00;;;;;;;;;;5015383;28;20198;-55
2021/08/10 00:03:23;;;;;;;4.47;2.20;;;;;;;;;;5038614;28;20213;-55
2021/08/10 00:05:49;;;;;;;4.07;1.90;;;;;;;;;;5043837;28;20214;-55
2021/08/10 00:08:15;;;;;;;2.50;1.80;;;;;;;;;;5042014;28;20196;-56
2021/08/10 00:10:40;;;;;;;5.40;1.93;;;;;;;;;;5025304;28;20633;-55
2021/08/10 00:13:05;;;;;;;4.23;1.87;;;;;;;;;;5038138;28;20227;-56
2021/08/10 00:15:30;;;;;;;3.67;2.10;;;;;;;;;;5032934;28;20207;-55
2021/08/10 00:17:56;;;;;;;3.40;1.83;;;;;;;;;;5025201;28;20211;-56
2021/08/10 00:20:21;;;;;;;4.60;2.10;;;;;;;;;;5043890;28;20171;-55
2021/08/10 00:22:46;;;;;;;4.97;2.00;;;;;;;;;;5030046;28;20657;-56
2021/08/10 00:25:11;;;;;;;2.87;1.70;;;;;;;;;;5043056;28;20260;-56
2021/08/10 00:27:36;;;;;;;3.73;1.83;;;;;;;;;;5040686;28;20190;-56
2021/08/10 00:30:02;;;;;;;2.17;1.80;;;;;;;;;;5043000;28;20187;-56
2021/08/10 00:32:27;;;;;;;2.73;1.63;;;;;;;;;;5043046;28;20229;-56
2021/08/10 00:34:53;;;;;;;5.03;1.90;;;;;;;;;;5039374;28;20206;-54
2021/08/10 00:37:19;;;;;;;1.95;1.42;;;;;;;;;;5045105;28;20289;-54
2021/08/10 00:39:44;;;;;;;4.38;2.05;;;;;;;;;;5046397;28;20265;-55
2021/08/10 00:42:09;;;;;;;4.22;1.80;;;;;;;;;;5037308;28;20182;-56
2021/08/10 00:44:35;;;;;;;3.63;1.85;;;;;;;;;;5041042;28;20671;-55
2021/08/10 00:47:00;;;;;;;3.10;1.95;;;;;;;;;;5040525;28;20212;-54
2021/08/10 00:49:25;;;;;;;3.07;1.90;;;;;;;;;;5043105;28;20170;-54
2021/08/10 00:51:51;;;;;;;3.40;1.67;;;;;;;;;;5041946;28;20795;-54
2021/08/10 00:54:16;;;;;;;2.43;1.90;;;;;;;;;;5035246;28;20205;-55
2021/08/10 00:56:41;;;;;;;2.87;1.77;;;;;;;;;;5043073;28;20233;-54
2021/08/10 00:59:07;;;;;;;3.70;1.63;;;;;;;;;;5041952;28;20190;-54
2021/08/10 01:01:32;;;;;;;3.43;1.97;;;;;;;;;;5037419;28;20178;-55
2021/08/10 01:03:57;;;;;;;4.40;1.70;;;;;;;;;;5042149;28;20291;-56
2021/08/10 01:06:32;;;;;;;3.30;1.80;;;;;;;;;;5032886;28;20201;-55
2021/08/10 01:09:08;;;;;;;4.93;1.90;;;;;;;;;;5043425;28;20206;-55
2021/08/10 01:11:34;;;;;;;4.37;1.60;;;;;;;;;;5034174;28;20696;-55
2021/08/10 01:14:07;;;;;;;3.10;1.80;;;;;;;;;;5029805;28;20320;-55
2021/08/10 01:16:36;;;;;;;2.63;1.58;;;;;;;;;;5036503;28;20209;-54
2021/08/10 01:19:09;;;;;;;5.97;1.90;;;;;;;;;;5042926;28;20182;-55
2021/08/10 01:21:36;;;;;;;4.57;2.43;;;;;;;;;;5042614;28;20260;-54
2021/08/10 01:24:10;;;;;;;4.00;2.00;;;;;;;;;;5041806;28;20209;-55
2021/08/10 01:26:36;;;;;;;2.50;1.77;;;;;;;;;;5023869;28;20205;-54
2021/08/10 01:29:20;;;;;;;6.37;2.13;;;;;;;;;;5040927;28;20190;-55
2021/08/10 01:31:45;;;;;;;3.60;2.07;;;;;;;;;;5039553;28;20190;-54
2021/08/10 01:34:14;;;;;;;4.63;1.70;;;;;;;;;;5027543;28;20587;-54
2021/08/10 01:36:40;;;;;;;2.67;1.80;;;;;;;;;;5045942;28;20205;-54
2021/08/10 01:39:06;;;;;;;5.70;1.93;;;;;;;;;;5040543;28;20186;-55
2021/08/10 01:41:32;;;;;;;3.37;1.90;;;;;;;;;;5041860;28;20259;-54
2021/08/10 01:43:58;;;;;;;2.93;1.87;;;;;;;;;;5038028;28;20256;-56
2021/08/10 01:46:25;;;;;;;6.47;1.93;;;;;;;;;;5042472;28;20784;-54
2021/08/10 01:48:52;;;;;;;3.73;1.90;;;;;;;;;;5030501;28;20217;-54
2021/08/10 01:51:19;;;;;;;3.07;1.90;;;;;;;;;;5038026;28;20269;-55
2021/08/10 01:53:45;;;;;;;2.03;1.83;;;;;;;;;;5040029;28;20213;-54
2021/08/10 01:56:10;;;;;;;3.30;2.07;;;;;;;;;;5040790;28;20655;-54
2021/08/10 01:58:36;;;;;;;3.50;2.30;;;;;;;;;;5036823;28;20182;-54
2021/08/10 02:01:01;;;;;;;3.00;1.60;;;;;;;;;;5037630;28;20230;-54
2021/08/10 02:03:28;;;;;;;2.23;1.60;;;;;;;;;;5036317;28;20217;-56
2021/08/10 02:05:53;;;;;;;5.17;2.37;;;;;;;;;;5043997;28;20260;-54
2021/08/10 02:08:19;;;;;;;4.77;2.67;;;;;;;;;;5041317;28;20174;-55
2021/08/10 02:10:45;;;;;;;2.97;1.90;;;;;;;;;;5042365;28;20193;-54
2021/08/10 02:13:11;;;;;;;2.47;2.00;;;;;;;;;;5041019;28;20187;-54
2021/08/10 02:15:39;;;;;;;2.97;2.17;;;;;;;;;;5041666;28;20212;-55
2021/08/10 02:18:04;;;;;;;4.07;2.30;;;;;;;;;;5044112;28;20201;-54
2021/08/10 02:20:29;;;;;;;4.50;2.30;;;;;;;;;;5042270;28;20553;-54
2021/08/10 02:22:54;;;;;;;5.87;2.07;;;;;;;;;;5043098;28;20209;-54
2021/08/10 02:25:22;;;;;;;3.70;2.10;;;;;;;;;;5042852;28;20198;-55
2021/08/10 02:27:47;;;;;;;9.10;2.23;;;;;;;;;;5047428;28;20185;-55
2021/08/10 02:30:14;;;;;;;5.67;2.13;;;;;;;;;;5042370;28;20332;-54
2021/08/10 02:32:41;;;;;;;4.43;2.10;;;;;;;;;;5040466;28;20410;-55
2021/08/10 02:35:07;;;;;;;5.43;2.43;;;;;;;;;;5046812;28;20224;-54
2021/08/10 02:37:33;;;;;;;3.30;2.00;;;;;;;;;;5025156;28;20411;-57
2021/08/10 02:40:00;;;;;;;4.67;1.90;;;;;;;;;;5047241;28;20206;-55
2021/08/10 02:42:25;;;;;;;2.63;1.80;;;;;;;;;;5045272;28;20183;-56
2021/08/10 02:44:51;;;;;;;3.80;2.27;;;;;;;;;;5031648;28;20205;-56
2021/08/10 02:47:17;;;;;;;3.90;2.03;;;;;;;;;;5046490;28;20206;-55
2021/08/10 02:49:42;;;;;;;2.17;1.97;;;;;;;;;;5044150;28;20225;-56
2021/08/10 02:52:08;;;;;;;6.30;2.20;;;;;;;;;;5046013;28;20186;-55
2021/08/10 02:54:33;;;;;;;2.60;1.80;;;;;;;;;;5046941;28;20201;-56
2021/08/10 02:57:13;;;;;;;2.77;2.10;;;;;;;;;;5035181;28;20212;-55
2021/08/10 02:59:44;;;;;;;2.40;1.83;;;;;;;;;;5038628;28;20228;-54
2021/08/10 03:02:15;;;;;;;3.13;1.73;;;;;;;;;;5042378;28;20265;-55
2021/08/10 03:04:45;;;;;;;5.07;1.70;;;;;;;;;;5045724;28;20214;-54
2021/08/10 03:07:10;;;;;;;9.80;1.90;;;;;;;;;;5045115;28;20191;-54
2021/08/10 03:09:36;;;;;;;2.10;1.73;;;;;;;;;;5052584;22;20245;-75
2021/08/10 03:12:03;;;;;;;5.25;2.05;;;;;;;;;;5026148;28;20217;-75
2021/08/10 03:14:29;;;;;;;3.05;1.83;;;;;;;;;;5007282;28;20175;-76
2021/08/10 03:16:54;;;;;;;2.55;1.92;;;;;;;;;;5028816;28;20210;-75
2021/08/10 03:19:20;;;;;;;2.37;1.73;;;;;;;;;;5027505;28;20175;-76
2021/08/10 03:21:46;;;;;;;3.05;1.80;;;;;;;;;;5019587;28;20225;-77
2021/08/10 03:24:11;;;;;;;3.97;2.20;;;;;;;;;;5026525;28;20214;-78
2021/08/10 03:26:39;;;;;;;2.58;2.05;;;;;;;;;;5027803;28;20210;-76
2021/08/10 03:29:04;;;;;;;3.80;1.88;;;;;;;;;;5027716;28;20178;-77
2021/08/10 03:31:31;;;;;;;5.40;1.83;;;;;;;;;;5023176;28;20194;-75
2021/08/10 03:33:56;;;;;;;4.40;1.70;;;;;;;;;;5024024;28;20557;-76
2021/08/10 03:36:23;;;;;;;4.40;2.00;;;;;;;;;;5027977;28;20199;-77
2021/08/10 03:38:50;;;;;;;3.60;2.20;;;;;;;;;;5020901;28;20181;-78
2021/08/10 03:41:16;;;;;;;3.50;2.20;;;;;;;;;;5023431;28;20244;-77
2021/08/10 03:43:42;;;;;;;5.27;1.93;;;;;;;;;;5023563;28;20187;-76
2021/08/10 03:46:08;;;;;;;3.03;2.40;;;;;;;;;;5018439;28;20300;-76
2021/08/10 03:48:37;;;;;;;4.03;1.77;;;;;;;;;;5012467;28;20756;-76
2021/08/10 03:51:02;;;;;;;2.73;1.90;;;;;;;;;;5015191;28;20243;-75
2021/08/10 03:53:29;;;;;;;4.70;2.17;;;;;;;;;;5019117;28;20206;-76
2021/08/10 03:55:54;;;;;;;4.63;1.90;;;;;;;;;;5027904;28;20239;-76
2021/08/10 03:58:23;;;;;;;4.22;1.90;;;;;;;;;;5012758;28;20179;-76
2021/08/10 04:00:49;;;;;;;3.97;1.90;;;;;;;;;;4999227;28;20203;-76
2021/08/10 04:03:14;;;;;;;5.30;1.83;;;;;;;;;;5008922;28;20221;-77
2021/08/10 04:05:44;;;;;;;2.55;2.03;;;;;;;;;;5025295;28;20217;-76
2021/08/10 04:08:11;;;;;;;3.08;2.10;;;;;;;;;;5026750;28;20701;-77
2021/08/10 04:10:38;;;;;;;4.07;1.90;;;;;;;;;;5021678;28;20202;-75
2021/08/10 04:13:03;;;;;;;6.32;2.33;;;;;;;;;;5025736;28;20186;-77
2021/08/10 04:15:28;;;;;;;8.38;2.67;;;;;;;;;;5008455;28;20205;-77
2021/08/10 04:17:54;;;;;;;8.57;2.15;;;;;;;;;;5022361;28;20249;-77
2021/08/10 04:20:19;;;;;;;4.07;1.92;;;;;;;;;;5024601;28;20217;-77
2021/08/10 04:22:44;;;;;;;4.10;1.80;;;;;;;;;;5025435;28;20175;-77
2021/08/10 04:25:10;;;;;;;3.92;1.88;;;;;;;;;;5009923;28;20190;-78
2021/08/10 04:27:35;;;;;;;3.38;1.75;;;;;;;;;;5026296;28;20257;-75
2021/08/10 04:30:00;;;;;;;4.18;2.10;;;;;;;;;;5020442;28;20202;-76
2021/08/10 04:32:25;;;;;;;2.58;2.22;;;;;;;;;;5022045;28;20188;-75
2021/08/10 04:34:50;;;;;;;2.15;1.60;;;;;;;;;;5026059;28;20667;-75
2021/08/10 04:37:16;;;;;;;2.70;1.83;;;;;;;;;;5009934;28;20293;-75
2021/08/10 04:39:41;;;;;;;3.38;1.75;;;;;;;;;;5024779;28;21082;-75
2021/08/10 04:42:06;;;;;;;3.20;2.25;;;;;;;;;;5007109;28;20199;-76
2021/08/10 04:44:31;;;;;;;8.15;2.08;;;;;;;;;;5025043;28;20217;-78
2021/08/10 04:46:56;;;;;;;3.00;2.00;;;;;;;;;;5019656;28;20170;-75
2021/08/10 04:49:22;;;;;;;2.42;1.90;;;;;;;;;;5022413;28;20186;-76
2021/08/10 04:51:47;;;;;;;2.45;2.20;;;;;;;;;;5006410;28;20241;-75
2021/08/10 04:54:15;;;;;;;4.53;2.00;;;;;;;;;;5025916;28;20189;-78
2021/08/10 04:56:40;;;;;;;2.55;2.00;;;;;;;;;;5025666;28;20194;-77
2021/08/10 04:59:05;;;;;;;3.40;1.90;;;;;;;;;;5008329;28;20659;-75
2021/08/10 05:01:31;;;;;;;3.00;1.80;;;;;;;;;;5023793;28;20476;-75
2021/08/10 05:03:56;;;;;;;2.47;1.60;;;;;;;;;;5023716;28;20564;-78
2021/08/10 05:06:21;;;;;;;3.60;2.10;;;;;;;;;;5026045;28;20214;-75
2021/08/10 05:08:46;;;;;;;3.22;2.10;;;;;;;;;;5023227;28;20445;-75
2021/08/10 05:11:12;;;;;;;8.52;2.72;;;;;;;;;;5025176;28;20563;-77
2021/08/10 05:13:38;;;;;;;4.13;2.10;;;;;;;;;;5021891;28;20195;-74
2021/08/10 05:16:03;;;;;;;4.10;1.98;;;;;;;;;;5025778;28;20682;-75
2021/08/10 05:18:28;;;;;;;6.30;2.40;;;;;;;;;;5007907;28;20651;-75
2021/08/10 05:20:53;;;;;;;3.33;2.10;;;;;;;;;;5023532;28;20203;-75
2021/08/10 05:23:18;;;;;;;2.42;1.73;;;;;;;;;;5026191;28;20183;-76
2021/08/10 05:25:43;;;;;;;2.28;1.85;;;;;;;;;;5008661;28;20271;-75
2021/08/10 05:28:09;;;;;;;2.83;1.90;;;;;;;;;;5023674;28;20691;-76
2021/08/10 05:30:34;;;;;;;4.30;2.03;;;;;;;;;;5005147;28;20210;-80
2021/08/10 05:32:59;;;;;;;3.00;2.30;;;;;;;;;;5014150;28;20274;-80
2021/08/10 05:35:24;;;;;;;5.53;1.98;;;;;;;;;;5017020;28;20550;-81
2021/08/10 05:37:49;;;;;;;2.13;1.93;;;;;;;;;;5019994;28;20230;-81
2021/08/10 05:40:15;;;;;;;2.97;2.13;;;;;;;;;;5018445;28;20203;-82
2021/08/10 05:42:40;;;;;;;4.90;2.27;;;;;;;;;;5017044;28;20274;-82
2021/08/10 05:45:05;;;;;;;4.40;1.97;;;;;;;;;;5023316;28;20581;-83
2021/08/10 05:47:30;;;;;;;3.07;2.00;;;;;;;;;;5022667;28;20186;-82
2021/08/10 05:49:55;;;;;;;5.23;2.23;;;;;;;;;;4999100;28;20203;-79
2021/08/10 05:52:21;;;;;;;3.90;2.10;;;;;;;;;;5022106;28;20222;-81
2021/08/10 05:54:46;;;;;;;3.10;1.70;;;;;;;;;;5003937;28;20198;-80
2021/08/10 05:57:11;;;;;;;2.73;1.93;;;;;;;;;;5021478;28;20198;-82
2021/08/10 05:59:36;;;;;;;2.97;1.98;;;;;;;;;;5022343;28;20187;-80
2021/08/10 06:02:02;;;;;;;5.03;1.98;;;;;;;;;;5020673;28;20215;-80
2021/08/10 06:04:27;;;;;;;3.77;1.90;;;;;;;;;;5022593;28;20190;-80
2021/08/10 06:06:53;;;;;;;3.10;1.80;;;;;;;;;;5020151;28;20176;-81
2021/08/10 06:09:18;;;;;;;3.13;1.77;;;;;;;;;;5022098;28;20296;-80
2021/08/10 06:11:43;;;;;;;3.70;1.65;;;;;;;;;;5005146;28;20221;-78
2021/08/10 06:14:08;;;;;;;4.13;2.10;;;;;;;;;;5021732;28;20639;-78
2021/08/10 06:16:33;;;;;;;3.53;2.00;;;;;;;;;;5018738;28;20203;-82
2021/08/10 06:18:59;;;;;;;3.97;1.95;;;;;;;;;;5009472;28;20182;-80
2021/08/10 06:21:24;;;;;;;3.03;1.83;;;;;;;;;;5011497;28;20199;-81
2021/08/10 06:23:50;;;;;;;2.78;1.80;;;;;;;;;;5023436;28;20179;-81
2021/08/10 06:26:15;;;;;;;3.10;2.10;;;;;;;;;;5006973;28;20183;-80
2021/08/10 06:28:40;;;;;;;2.95;2.17;;;;;;;;;;5024106;28;20433;-78
2021/08/10 06:31:07;;;;;;;3.80;1.92;;;;;;;;;;5025731;28;20205;-75
2021/08/10 06:33:32;;;;;;;3.38;2.08;;;;;;;;;;5027914;28;20202;-80
2021/08/10 06:35:57;;;;;;;2.70;1.85;;;;;;;;;;5024161;28;20206;-80
2021/08/10 06:38:22;;;;;;;4.65;1.90;;;;;;;;;;5011472;28;20582;-79
2021/08/10 06:40:48;;;;;;;4.57;2.00;;;;;;;;;;5028151;28;20294;-81
2021/08/10 06:43:13;;;;;;;4.30;1.77;;;;;;;;;;5026211;28;20315;-83
2021/08/10 06:45:38;;;;;;;5.57;1.75;;;;;;;;;;5027338;28;20179;-80
2021/08/10 06:48:04;;;;;;;2.83;1.90;;;;;;;;;;5021528;28;20221;-82
2021/08/10 06:50:29;;;;;;;1.65;1.52;;;;;;;;;;5026525;28;20210;-81
2021/08/10 06:52:54;;;;;;;2.53;1.70;;;;;;;;;;5027701;28;20253;-81
2021/08/10 06:55:19;;;;;;;2.55;1.20;;;;;;;;;;5027351;28;20654;-83
2021/08/10 06:57:44;;;;;;;3.03;1.65;;;;;;;;;;5021016;28;20777;-79
2021/08/10 07:00:10;;;;;;;3.15;1.83;;;;;;;;;;5024155;28;20206;-79
2021/08/10 07:02:35;;;;;;;3.72;1.50;;;;;;;;;;5022953;28;20218;-78
2021/08/10 07:05:00;;;;;;;3.30;1.60;;;;;;;;;;5018445;28;20174;-78
2021/08/10 07:07:25;;;;;;;5.32;1.98;;;;;;;;;;5018584;28;20191;-79
2021/08/10 07:09:50;;;;;;;2.97;1.58;;;;;;;;;;5026840;28;20210;-82
2021/08/10 07:12:16;;;;;;;2.42;1.50;;;;;;;;;;5007573;28;20182;-80
2021/08/10 07:14:41;;;;;;;2.30;1.63;;;;;;;;;;5019929;28;20242;-81
2021/08/10 07:17:06;;;;;;;2.20;1.40;;;;;;;;;;5022359;28;20465;-80
2021/08/10 07:19:32;;;;;;;3.78;1.73;;;;;;;;;;5016362;28;20389;-80
2021/08/10 07:21:57;;;;;;;1.90;1.70;;;;;;;;;;5010378;28;20198;-79
2021/08/10 07:24:22;;;;;;;2.67;1.63;;;;;;;;;;5018610;28;20926;-75
2021/08/10 07:26:47;;;;;;;3.17;1.60;;;;;;;;;;5025916;28;20240;-76
2021/08/10 07:29:13;;;;;;;2.75;1.70;;;;;;;;;;5017136;28;20187;-77
2021/08/10 07:31:38;;;;;;;2.92;1.27;;;;;;;;;;5022320;28;20572;-77
2021/08/10 07:34:03;;;;;;;2.70;1.45;;;;;;;;;;5021880;28;20193;-77
2021/08/10 07:36:28;;;;;;;5.43;1.30;;;;;;;;;;5008412;28;20592;-77
2021/08/10 07:38:54;;;;;;;2.67;1.48;;;;;;;;;;5018282;28;20418;-76
2021/08/10 07:41:19;;;;;;;3.88;1.63;;;;;;;;;;5017756;28;20260;-78
2021/08/10 07:43:44;;;;;;;2.08;1.50;;;;;;;;;;5019467;28;20199;-79
2021/08/10 07:46:09;;;;;;;3.33;1.77;;;;;;;;;;5016876;28;20182;-78
2021/08/10 07:48:34;;;;;;;2.92;1.42;;;;;;;;;;5018802;28;20171;-76
2021/08/10 07:51:02;;;;;;;2.30;1.50;;;;;;;;;;5017280;28;20277;-77
2021/08/10 07:53:27;;;;;;;4.50;1.88;;;;;;;;;;5016097;28;20174;-78
2021/08/10 07:55:52;;;;;;;2.97;1.40;;;;;;;;;;5022334;28;20193;-81
2021/08/10 07:58:18;;;;;;;2.20;1.45;;;;;;;;;;5003759;28;20611;-80
2021/08/10 08:00:43;;;;;;;4.97;1.65;;;;;;;;;;5027781;23;20287;-54
2021/08/10 08:03:10;;;;;;;3.35;1.70;;;;;;;;;;5036167;28;20193;-54
2021/08/10 08:05:36;;;;;;;3.83;1.50;;;;;;;;;;5037010;28;20183;-54
2021/08/10 08:08:01;;;;;;;1.35;1.13;;;;;;;;;;5033707;28;20240;-55
2021/08/10 08:10:26;;;;;;;1.80;1.30;;;;;;;;;;5031159;28;20233;-55
2021/08/10 08:12:51;;;;;;;3.58;1.40;;;;;;;;;;5032844;28;20189;-55
2021/08/10 08:15:17;;;;;;;4.22;2.40;;;;;;;;;;5034436;28;20665;-55
2021/08/10 08:17:42;;;;;;;2.47;1.67;;;;;;;;;;5019693;28;20807;-55
2021/08/10 08:20:07;;;;;;;5.23;2.00;;;;;;;;;;5030190;28;20210;-55
2021/08/10 08:22:33;;;;;;;3.28;1.50;;;;;;;;;;5031123;28;21042;-55
2021/08/10 08:24:58;;;;;;;4.63;1.58;;;;;;;;;;5029074;28;20183;-56
2021/08/10 08:27:23;;;;;;;1.73;1.43;;;;;;;;;;5020337;28;20529;-55
2021/08/10 08:29:48;;;;;;;3.05;1.67;;;;;;;;;;5036475;28;20460;-55
2021/08/10 08:32:13;;;;;;;2.07;1.40;;;;;;;;;;5035535;28;20603;-57
2021/08/10 08:34:39;;;;;;;2.83;1.85;;;;;;;;;;5036554;28;20571;-55
2021/08/10 08:37:04;;;;;;;5.93;2.05;;;;;;;;;;5039251;28;20198;-56
2021/08/10 08:39:30;;;;;;;2.78;1.35;;;;;;;;;;5032701;28;20874;-57
2021/08/10 08:41:57;;;;;;;3.47;2.13;;;;;;;;;;5037399;28;20178;-56
2021/08/10 08:44:22;;;;;;;3.47;1.70;;;;;;;;;;5038453;28;20184;-56
2021/08/10 08:46:48;;;;;;;3.10;1.70;;;;;;;;;;5038020;28;20182;-55
2021/08/10 08:49:14;;;;;;;4.22;2.03;;;;;;;;;;5042253;28;20265;-56
2021/08/10 08:51:40;;;;;;;2.80;1.60;;;;;;;;;;5037861;28;20186;-54
2021/08/10 08:54:07;;;;;;;2.38;1.40;;;;;;;;;;5014992;28;20240;-55
2021/08/10 08:56:32;;;;;;;2.75;1.50;;;;;;;;;;5019502;28;20253;-56
2021/08/10 08:58:57;;;;;;;4.35;2.20;;;;;;;;;;5018623;28;20190;-56
2021/08/10 09:01:22;;;;;;;3.20;2.10;;;;;;;;;;5035346;28;20255;-56
2021/08/10 09:03:47;;;;;;;4.85;1.90;;;;;;;;;;5034206;28;20445;-56
2021/08/10 09:06:13;;;;;;;2.67;2.33;;;;;;;;;;5028757;28;20170;-56
2021/08/10 09:08:42;;;;;;;2.88;2.03;;;;;;;;;;5037033;28;20423;-56
2021/08/10 09:11:10;;;;;;;4.03;2.10;;;;;;;;;;5034157;28;20206;-55
2021/08/10 09:13:39;;;;;;;2.58;1.98;;;;;;;;;;5023263;28;20176;-56
2021/08/10 09:16:06;;;;;;;3.13;2.30;;;;;;;;;;5029471;28;20569;-55
2021/08/10 09:18:35;;;;;;;2.10;1.90;;;;;;;;;;5039914;28;20196;-56
2021/08/10 09:21:06;;;;;;;4.00;2.30;;;;;;;;;;5035825;28;20259;-55
2021/08/10 09:23:46;;;;;;;2.72;2.20;;;;;;;;;;5031264;28;20170;-56
2021/08/10 09:26:32;;;;;;;4.13;2.40;;;;;;;;;;5034818;28;20178;-56
2021/08/10 09:28:58;;;;;;;2.17;1.80;;;;;;;;;;5027198;28;20189;-56
2021/08/10 09:31:37;;;;;;;3.90;2.30;;;;;;;;;;5035531;28;20220;-56
2021/08/10 09:34:06;;;;;;;6.55;2.67;;;;;;;;;;5040135;28;20201;-56
2021/08/10 09:36:32;;;;;;;3.25;2.28;;;;;;;;;;5030838;28;20211;-56
2021/08/10 09:38:58;;;;;;;3.10;2.55;;;;;;;;;;5036594;28;20259;-56
2021/08/10 09:41:25;;;;;;;2.90;2.35;;;;;;;;;;5041404;28;20833;-56
2021/08/10 09:44:04;;;;;;;3.10;2.15;;;;;;;;;;5043718;28;20187;-57
2021/08/10 09:46:30;;;;;;;3.20;2.40;;;;;;;;;;5032063;28;20181;-56
2021/08/10 09:48:55;;;;;;;3.08;2.15;;;;;;;;;;5037350;28;20182;-56
2021/08/10 09:51:22;;;;;;;3.10;2.30;;;;;;;;;;5020766;28;20547;-56
2021/08/10 09:54:03;;;;;;;2.70;2.50;;;;;;;;;;5037887;28;20207;-56
2021/08/10 09:56:56;;;;;;;4.05;3.20;;;;;;;;;;5038693;28;20232;-56
2021/08/10 09:59:26;;;;;;;3.10;2.47;;;;;;;;;;5038692;28;20682;-56
2021/08/10 10:01:53;;;;;;;3.20;2.60;;;;;;;;;;5041974;28;20186;-56
2021/08/10 10:04:25;;;;;;;4.15;2.72;;;;;;;;;;5035484;28;20670;-57
2021/08/10 10:06:53;;;;;;;3.67;2.63;;;;;;;;;;5040589;28;20304;-56
2021/08/10 10:09:19;;;;;;;4.32;2.70;;;;;;;;;;5041008;28;20252;-56
2021/08/10 10:11:45;;;;;;;5.35;3.05;;;;;;;;;;5037574;28;20189;-57
2021/08/10 10:14:12;;;;;;;4.50;2.78;;;;;;;;;;5043583;28;20686;-56
2021/08/10 10:16:38;;;;;;;3.17;2.88;;;;;;;;;;5025158;28;20206;-55
2021/08/10 10:19:05;;;;;;;4.07;3.00;;;;;;;;;;5029135;28;20170;-55
2021/08/10 10:21:31;;;;;;;3.85;3.47;;;;;;;;;;5039811;28;20194;-56
2021/08/10 10:23:57;;;;;;;3.97;3.20;;;;;;;;;;5045145;28;20561;-56
2021/08/10 10:26:23;;;;;;;6.07;3.47;;;;;;;;;;5043613;28;20191;-56
2021/08/10 10:28:49;;;;;;;4.50;3.35;;;;;;;;;;5030809;28;20596;-56
2021/08/10 10:31:15;;;;;;;3.83;3.25;;;;;;;;;;5042610;28;20222;-56
2021/08/10 10:33:41;;;;;;;4.30;3.20;;;;;;;;;;5025277;28;20269;-56
2021/08/10 10:36:06;;;;;;;4.15;3.15;;;;;;;;;;5037259;28;20940;-56
2021/08/10 10:38:31;;;;;;;3.28;2.97;;;;;;;;;;5028825;28;20360;-56
2021/08/10 10:40:59;;;;;;;4.63;3.08;;;;;;;;;;5038586;28;20202;-56
2021/08/10 10:43:25;;;;;;;3.65;2.88;;;;;;;;;;5048491;28;20185;-57
2021/08/10 10:45:53;;;;;;;6.82;3.05;;;;;;;;;;5042772;28;20269;-56
2021/08/10 10:48:24;;;;;;;4.38;3.20;;;;;;;;;;5043729;28;20277;-56
2021/08/10 10:51:11;;;;;;;3.83;2.70;;;;;;;;;;5040850;28;20202;-56
2021/08/10 10:53:39;;;;;;;4.55;3.60;;;;;;;;;;5040959;28;20193;-56
2021/08/10 10:56:24;;;;;;;3.97;2.85;;;;;;;;;;5038557;28;20193;-56
2021/08/10 10:58:49;;;;;;;4.00;3.28;;;;;;;;;;5045143;28;20188;-55
2021/08/10 11:01:19;;;;;;;4.97;3.60;;;;;;;;;;5042720;28;20808;-56
2021/08/10 11:04:08;;;;;;;3.15;2.45;;;;;;;;;;5037908;28;20604;-56
2021/08/10 11:06:33;;;;;;;5.97;3.25;;;;;;;;;;5033363;28;20178;-56
2021/08/10 11:08:59;;;;;;;4.13;3.10;;;;;;;;;;5042017;28;20185;-56
2021/08/10 11:11:43;;;;;;;9.30;3.08;;;;;;;;;;5042934;28;20444;-55
2021/08/10 11:14:27;;;;;;;3.97;2.72;;;;;;;;;;5040262;28;20257;-56
2021/08/10 11:17:08;;;;;;;5.03;3.28;;;;;;;;;;5027629;28;20197;-55
2021/08/10 11:19:34;;;;;;;3.50;3.10;;;;;;;;;;5017826;28;20313;-56
2021/08/10 11:22:14;;;;;;;3.03;2.70;;;;;;;;;;5040990;28;20662;-56
2021/08/10 11:24:40;;;;;;;4.75;3.20;;;;;;;;;;5045133;28;20324;-56
2021/08/10 11:27:25;;;;;;;4.80;3.00;;;;;;;;;;5028807;28;20277;-56
2021/08/10 11:29:50;;;;;;;7.82;3.05;;;;;;;;;;5037666;28;20222;-56
2021/08/10 11:32:36;;;;;;;3.58;2.83;;;;;;;;;;5044747;28;20179;-56
2021/08/10 11:35:27;;;;;;;3.28;2.70;;;;;;;;;;5029580;28;20216;-55
2021/08/10 11:38:05;;;;;;;3.45;2.90;;;;;;;;;;5036648;28;20226;-56
2021/08/10 11:40:37;;;;;;;3.03;2.60;;;;;;;;;;5037256;28;20202;-55
2021/08/10 11:43:02;;;;;;;3.75;2.90;;;;;;;;;;5025024;28;20190;-56
2021/08/10 11:45:34;;;;;;;4.80;3.10;;;;;;;;;;5023900;28;20592;-57
2021/08/10 11:48:00;;;;;;;10.15;3.00;;;;;;;;;;5038034;28;20182;-56
2021/08/10 11:50:26;;;;;;;3.80;2.70;;;;;;;;;;5032661;28;20209;-56
2021/08/10 11:52:52;;;;;;;6.80;3.17;;;;;;;;;;5026573;28;20192;-56
2021/08/10 11:55:26;;;;;;;3.20;2.75;;;;;;;;;;5036334;28;20175;-56
2021/08/10 11:57:55;;;;;;;3.22;2.90;;;;;;;;;;5024477;28;20213;-56
2021/08/10 12:00:21;;;;;;;5.07;3.33;;;;;;;;;;5034985;28;20285;-57
2021/08/10 12:02:47;;;;;;;4.18;3.00;;;;;;;;;;5039876;28;20268;-56
2021/08/10 12:05:13;;;;;;;3.20;2.63;;;;;;;;;;5033387;28;20186;-55
2021/08/10 12:08:07;;;;;;;5.45;3.40;;;;;;;;;;5030633;28;20190;-56
2021/08/10 12:10:34;;;;;;;3.15;2.80;;;;;;;;;;5010424;28;20211;-56
2021/08/10 12:13:01;;;;;;;9.15;3.22;;;;;;;;;;5035698;28;20934;-56
2021/08/10 12:15:36;;;;;;;3.60;2.72;;;;;;;;;;5038419;28;20252;-55
2021/08/10 12:18:02;;;;;;;3.85;3.13;;;;;;;;;;5026780;28;20229;-55
2021/08/10 12:20:27;;;;;;;4.25;2.88;;;;;;;;;;5028592;28;20244;-56
2021/08/10 12:22:59;;;;;;;3.75;3.20;;;;;;;;;;5040380;28;20178;-56
2021/08/10 12:25:24;;;;;;;5.57;3.38;;;;;;;;;;5022352;28;20196;-56
2021/08/10 12:27:49;;;;;;;4.72;3.08;;;;;;;;;;5043263;28;20266;-55
2021/08/10 12:30:14;;;;;;;4.13;3.30;;;;;;;;;;5039808;28;20272;-57
2021/08/10 12:32:40;;;;;;;4.78;2.70;;;;;;;;;;5022415;28;20665;-57
2021/08/10 12:35:17;;;;;;;5.45;2.95;;;;;;;;;;5037544;28;20266;-55
2021/08/10 12:37:42;;;;;;;4.05;3.10;;;;;;;;;;5039369;28;20784;-56
2021/08/10 12:40:13;;;;;;;3.88;3.00;;;;;;;;;;5040526;23;20268;-55
2021/08/10 12:42:38;;;;;;;3.97;3.17;;;;;;;;;;5062568;28;20547;-56
2021/08/10 12:45:03;;;;;;;4.05;3.55;;;;;;;;;;5062180;28;20185;-56
2021/08/10 12:47:33;;;;;;;3.45;3.00;;;;;;;;;;5066894;28;20193;-56
2021/08/10 12:49:58;;;;;;;3.95;3.10;;;;;;;;;;5051570;28;20213;-55
2021/08/10 12:52:38;;;;;;;3.35;3.05;;;;;;;;;;5046226;28;20177;-55
2021/08/10 12:55:04;;;;;;;4.07;3.33;;;;;;;;;;5044557;28;20259;-56
2021/08/10 12:57:30;;;;;;;5.97;2.95;;;;;;;;;;5029132;28;20666;-56
2021/08/10 12:59:57;;;;;;;5.07;3.17;;;;;;;;;;5046172;28;20205;-55
2021/08/10 13:02:31;;;;;;;6.43;2.90;;;;;;;;;;5035761;28;20182;-55
2021/08/10 13:04:57;;;;;;;5.10;3.17;;;;;;;;;;5039392;28;20879;-56
2021/08/10 13:07:23;;;;;;;3.40;2.78;;;;;;;;;;5043425;28;20187;-56
2021/08/10 13:09:55;;;;;;;3.47;2.75;;;;;;;;;;5036690;28;20206;-56
2021/08/10 13:12:20;;;;;;;4.07;3.22;;;;;;;;;;5050649;28;20644;-55
2021/08/10 13:14:54;;;;;;;3.33;2.97;;;;;;;;;;5034833;28;20212;-55
2021/08/10 13:17:39;;;;;;;3.28;2.90;;;;;;;;;;5042922;28;20205;-55
2021/08/10 13:20:04;;;;;;;4.28;3.13;;;;;;;;;;5044617;28;20205;-55
2021/08/10 13:22:40;;;;;;;4.30;3.20;;;;;;;;;;5055774;28;20181;-55
2021/08/10 13:25:09;;;;;;;4.30;3.22;;;;;;;;;;5015545;28;20186;-55
2021/08/10 13:27:34;;;;;;;3.88;3.10;;;;;;;;;;5036118;28;20602;-55
2021/08/10 13:29:59;;;;;;;4.55;3.17;;;;;;;;;;5040510;28;20293;-55
2021/08/10 13:32:26;;;;;;;4.05;2.90;;;;;;;;;;5043550;28;20260;-56
2021/08/10 13:34:52;;;;;;;4.18;3.17;;;;;;;;;;5046174;28;20234;-55
2021/08/10 13:37:17;;;;;;;3.22;2.70;;;;;;;;;;5041760;28;20202;-56
2021/08/10 13:39:42;;;;;;;7.38;3.47;;;;;;;;;;5029872;28;20213;-55
2021/08/10 13:42:09;;;;;;;4.35;3.42;;;;;;;;;;5046810;28;20182;-55
2021/08/10 13:44:34;;;;;;;5.25;3.10;;;;;;;;;;5032228;28;20690;-55
2021/08/10 13:46:59;;;;;;;5.70;3.55;;;;;;;;;;5028808;28;20193;-55
2021/08/10 13:49:25;;;;;;;3.47;2.90;;;;;;;;;;5036713;28;20199;-55
2021/08/10 13:51:50;;;;;;;3.72;3.33;;;;;;;;;;5048901;28;20415;-55
2021/08/10 13:54:15;;;;;;;4.73;3.30;;;;;;;;;;5057248;28;20207;-55
2021/08/10 13:56:40;;;;;;;4.30;3.03;;;;;;;;;;5029393;28;20453;-55
2021/08/10 13:59:07;;;;;;;3.80;2.75;;;;;;;;;;5042335;28;20444;-55
2021/08/10 14:04:00;;;;;;;5.57;3.08;;;;;;;;;;5043942;28;20224;-55
2021/08/10 14:06:26;;;;;;;9.52;2.92;;;;;;;;;;5047513;28;20585;-54
2021/08/10 14:08:51;;;;;;;4.90;2.95;;;;;;;;;;5037237;28;21897;-55
2021/08/10 14:11:16;;;;;;;5.78;3.00;;;;;;;;;;5041837;28;20206;-55
2021/08/10 14:13:42;;;;;;;3.28;2.83;;;;;;;;;;5037605;28;20186;-55
2021/08/10 14:16:07;;;;;;;3.50;3.13;;;;;;;;;;5040546;28;20224;-55
2021/08/10 14:18:32;;;;;;;4.65;3.42;;;;;;;;;;5046524;28;20695;-55
2021/08/10 14:20:58;;;;;;;9.15;3.20;;;;;;;;;;5020385;28;20182;-55
2021/08/10 14:23:23;;;;;;;7.70;3.15;;;;;;;;;;5046550;28;20179;-55
2021/08/10 14:25:48;;;;;;;4.25;2.90;;;;;;;;;;5048584;28;20677;-55
2021/08/10 14:28:13;;;;;;;7.13;3.13;;;;;;;;;;5020709;28;20216;-55
2021/08/10 14:30:38;;;;;;;4.68;2.90;;;;;;;;;;5042272;28;20263;-55
2021/08/10 14:33:04;;;;;;;4.40;3.10;;;;;;;;;;5035113;28;20183;-55
2021/08/10 14:35:29;;;;;;;3.50;2.90;;;;;;;;;;5035106;28;20913;-55
2021/08/10 14:37:54;;;;;;;4.03;3.20;;;;;;;;;;5043604;28;20202;-55
2021/08/10 14:40:19;;;;;;;3.95;3.08;;;;;;;;;;5049298;28;20213;-55
2021/08/10 14:42:45;;;;;;;3.50;2.63;;;;;;;;;;5041722;28;20189;-55
2021/08/10 14:45:10;;;;;;;3.65;2.65;;;;;;;;;;5047298;28;20182;-55